createdAt,value
2018-06-14T00:01:37.978Z,2.80
2018-06-14T00:04:41.658Z,3.83
2018-06-14T00:08:48.610Z,2.40
2018-06-14T00:11:52.240Z,2.20
2018-06-14T00:14:55.847Z,2.50
2018-06-14T00:17:59.477Z,2.33
2018-06-14T00:21:03.245Z,2.60
2018-06-14T00:24:06.885Z,2.77
2018-06-14T00:27:10.482Z,3.53
2018-06-14T00:30:14.119Z,2.60
2018-06-14T00:33:17.732Z,2.53
2018-06-14T00:36:21.363Z,3.00
2018-06-14T00:39:24.965Z,2.30
2018-06-14T00:42:28.598Z,2.17
2018-06-14T00:45:32.202Z,2.33
2018-06-14T00:48:36.030Z,3.50
2018-06-14T00:51:39.614Z,2.30
2018-06-14T00:54:43.246Z,2.57
2018-06-14T00:57:46.859Z,2.90
2018-06-14T01:00:50.493Z,2.30
2018-06-14T01:03:54.130Z,3.10
2018-06-14T01:06:57.770Z,2.60
2018-06-14T01:10:01.383Z,2.10
2018-06-14T01:13:05.247Z,3.40
2018-06-14T01:20:15.749Z,2.30
2018-06-14T01:23:19.354Z,2.30
2018-06-14T01:26:23.000Z,2.37
2018-06-14T01:29:26.999Z,2.20
2018-06-14T01:32:30.713Z,2.27
2018-06-14T01:35:34.713Z,3.23
2018-06-14T01:38:38.338Z,2.40
2018-06-14T01:41:42.139Z,3.27
2018-06-14T01:44:45.717Z,2.53
2018-06-14T01:47:49.382Z,2.80
2018-06-14T01:50:52.973Z,2.50
2018-06-14T01:53:56.641Z,5.00
2018-06-14T01:57:00.253Z,5.40
2018-06-14T02:00:04.019Z,2.47
2018-06-14T02:03:07.641Z,2.70
2018-06-14T02:06:11.353Z,2.20
2018-06-14T02:09:15.106Z,4.13
2018-06-14T02:12:18.685Z,2.47
2018-06-14T02:15:22.327Z,2.43
2018-06-14T02:18:26.218Z,2.63
2018-06-14T02:21:30.134Z,2.30
2018-06-14T02:24:33.758Z,2.80
2018-06-14T02:27:37.389Z,3.60
2018-06-14T02:30:41.036Z,2.77
2018-06-14T02:33:44.525Z,3.20
2018-06-14T02:36:48.028Z,2.67
2018-06-14T02:39:51.473Z,2.70
2018-06-14T02:42:54.991Z,2.07
2018-06-14T02:45:58.621Z,2.77
2018-06-14T02:49:02.340Z,2.60
2018-06-14T02:52:05.934Z,2.10
2018-06-14T02:55:09.358Z,2.10
2018-06-14T02:58:12.895Z,2.73
2018-06-14T03:01:16.596Z,4.80
2018-06-14T03:04:20.290Z,2.53
2018-06-14T03:10:50.782Z,2.17
2018-06-14T03:13:54.411Z,5.20
2018-06-14T03:16:58.044Z,2.40
2018-06-14T03:20:01.666Z,2.03
2018-06-14T03:23:05.367Z,2.47
2018-06-14T03:26:09.257Z,2.00
2018-06-14T03:29:13.077Z,2.27
2018-06-14T03:32:16.719Z,2.10
2018-06-14T03:35:20.832Z,3.00
2018-06-14T03:38:25.094Z,2.37
2018-06-14T03:41:28.759Z,2.60
2018-06-14T03:44:32.664Z,5.23
2018-06-14T03:47:36.203Z,3.83
2018-06-14T03:50:39.869Z,4.10
2018-06-14T03:53:43.468Z,2.63
2018-06-14T03:56:47.083Z,3.17
2018-06-14T03:59:50.530Z,2.93
2018-06-14T04:02:54.052Z,3.17
2018-06-14T04:05:57.678Z,6.10
2018-06-14T04:09:01.303Z,5.27
2018-06-14T04:12:05.223Z,5.90
2018-06-14T04:15:08.846Z,5.30
2018-06-14T04:18:12.560Z,2.60
2018-06-14T04:21:16.162Z,4.70
2018-06-14T04:24:19.805Z,4.80
2018-06-14T04:27:23.464Z,3.50
2018-06-14T04:30:27.457Z,4.13
2018-06-14T04:33:31.073Z,2.90
2018-06-14T04:36:34.761Z,2.87
2018-06-14T04:39:38.400Z,2.50
2018-06-14T04:42:42.031Z,4.37
2018-06-14T04:45:45.684Z,4.50
2018-06-14T04:48:49.468Z,3.60
2018-06-14T04:51:53.232Z,3.30
2018-06-14T04:54:56.861Z,5.07
2018-06-14T04:58:00.658Z,4.10
2018-06-14T05:01:04.944Z,3.23
2018-06-14T05:04:08.597Z,4.27
2018-06-14T05:07:12.238Z,4.30
2018-06-14T05:10:16.221Z,3.47
2018-06-14T05:13:19.941Z,3.50
2018-06-14T05:16:23.581Z,4.30
2018-06-14T05:19:58.240Z,3.83
2018-06-14T05:23:02.162Z,3.60
2018-06-14T05:26:05.806Z,3.73
2018-06-14T05:29:09.463Z,3.70
2018-06-14T05:32:13.111Z,3.30
2018-06-14T05:35:16.722Z,3.90
2018-06-14T05:39:49.627Z,4.30
2018-06-14T05:42:53.261Z,4.20
2018-06-14T05:45:56.887Z,4.33
2018-06-14T05:49:00.521Z,3.90
2018-06-14T05:52:03.970Z,3.83
2018-06-14T05:55:07.575Z,3.60
2018-06-14T05:58:11.222Z,3.43
2018-06-14T06:01:14.871Z,3.30
2018-06-14T06:04:18.519Z,2.90
2018-06-14T06:07:22.141Z,3.37
2018-06-14T06:10:25.778Z,4.03
2018-06-14T06:13:29.449Z,3.70
2018-06-14T06:16:32.930Z,4.33
2018-06-14T06:19:36.478Z,3.90
2018-06-14T06:22:40.257Z,3.57
2018-06-14T06:25:43.862Z,3.60
2018-06-14T06:28:47.520Z,3.60
2018-06-14T06:31:51.138Z,4.17
2018-06-14T06:34:54.792Z,3.95
2018-06-14T06:37:58.410Z,4.12
2018-06-14T06:41:02.081Z,3.60
2018-06-14T06:44:05.508Z,3.65
2018-06-14T06:47:09.063Z,3.60
2018-06-14T06:50:12.693Z,3.60
2018-06-14T06:53:16.444Z,3.55
2018-06-14T06:56:20.084Z,3.55
2018-06-14T06:59:23.703Z,3.55
2018-06-14T07:02:27.384Z,3.27
2018-06-14T07:05:31.123Z,3.58
2018-06-14T07:08:34.677Z,3.62
2018-06-14T07:11:38.356Z,4.53
2018-06-14T07:14:41.959Z,4.55
2018-06-14T07:17:45.623Z,5.17
2018-06-14T07:20:49.243Z,3.15
2018-06-14T07:23:52.878Z,5.00
2018-06-14T07:26:56.477Z,4.08
2018-06-14T07:30:00.110Z,6.65
2018-06-14T07:33:03.906Z,4.25
2018-06-14T07:36:07.423Z,2.90
2018-06-14T07:39:12.342Z,3.40
2018-06-14T07:42:15.952Z,4.20
2018-06-14T07:45:19.389Z,3.25
2018-06-14T07:48:23.046Z,3.25
2018-06-14T07:51:26.710Z,3.10
2018-06-14T07:54:30.365Z,2.80
2018-06-14T07:57:34.038Z,3.55
2018-06-14T08:00:37.691Z,2.80
2018-06-14T08:03:41.357Z,2.37
2018-06-14T08:06:44.973Z,2.75
2018-06-14T08:09:48.616Z,2.70
2018-06-14T08:12:52.273Z,2.60
2018-06-14T08:15:55.948Z,2.70
2018-06-14T08:18:59.626Z,2.37
2018-06-14T08:22:03.247Z,2.65
2018-06-14T08:25:06.904Z,3.50
2018-06-14T08:28:10.521Z,2.65
2018-06-14T08:31:14.183Z,2.67
2018-06-14T08:34:17.795Z,2.00
2018-06-14T08:37:25.821Z,2.20
2018-06-14T08:40:29.462Z,3.15
2018-06-14T08:43:33.619Z,2.55
2018-06-14T08:46:37.269Z,2.22
2018-06-14T08:49:41.726Z,2.60
2018-06-14T08:52:45.344Z,3.08
2018-06-14T08:55:48.822Z,2.55
2018-06-14T08:58:52.439Z,2.50
2018-06-14T09:01:56.137Z,2.17
2018-06-14T09:04:59.738Z,7.12
2018-06-14T09:08:03.354Z,2.05
2018-06-14T09:11:07.022Z,2.08
2018-06-14T09:14:10.732Z,3.05
2018-06-14T09:17:14.299Z,3.30
2018-06-14T09:20:17.975Z,3.15
2018-06-14T09:23:21.613Z,2.40
2018-06-14T09:26:25.565Z,1.80
2018-06-14T09:29:29.162Z,4.25
2018-06-14T09:32:32.871Z,2.17
2018-06-14T09:35:36.471Z,2.80
2018-06-14T09:38:40.175Z,3.00
2018-06-14T09:41:43.879Z,2.00
2018-06-14T09:44:47.496Z,2.37
2018-06-14T09:47:51.253Z,2.52
2018-06-14T09:50:54.907Z,2.75
2018-06-14T09:53:58.799Z,3.85
2018-06-14T09:57:02.522Z,2.30
2018-06-14T10:00:06.107Z,2.20
2018-06-14T10:03:09.819Z,2.12
2018-06-14T10:06:13.387Z,2.50
2018-06-14T10:09:16.993Z,2.40
2018-06-14T10:12:20.624Z,3.25
2018-06-14T10:15:24.085Z,2.08
2018-06-14T10:18:27.610Z,2.50
2018-06-14T10:21:31.602Z,2.58
2018-06-14T10:24:35.223Z,7.60
2018-06-14T10:27:38.672Z,2.33
2018-06-14T10:30:43.252Z,2.30
2018-06-14T10:33:46.886Z,3.77
2018-06-14T10:36:50.501Z,5.72
2018-06-14T10:39:54.358Z,2.50
2018-06-14T10:43:02.479Z,2.58
2018-06-14T10:46:06.111Z,5.87
2018-06-14T10:49:09.772Z,3.20
2018-06-14T10:52:13.459Z,2.87
2018-06-14T10:55:17.185Z,3.15
2018-06-14T10:58:20.782Z,3.83
2018-06-14T11:01:24.472Z,3.00
2018-06-14T11:04:28.111Z,2.37
2018-06-14T11:07:31.827Z,2.55
2018-06-14T11:10:35.466Z,3.50
2018-06-14T11:13:39.082Z,2.70
2018-06-14T11:16:42.711Z,2.20
2018-06-14T11:19:46.336Z,2.50
2018-06-14T11:22:50.084Z,4.62
2018-06-14T11:25:54.778Z,2.25
2018-06-14T11:28:58.603Z,2.67
2018-06-14T11:32:02.267Z,2.52
2018-06-14T11:35:05.987Z,2.10
2018-06-14T11:38:09.623Z,2.97
2018-06-14T11:41:13.356Z,3.25
2018-06-14T11:44:17.059Z,3.00
2018-06-14T11:47:20.770Z,2.45
2018-06-14T11:50:24.182Z,2.30
2018-06-14T11:53:27.730Z,2.93
2018-06-14T11:56:31.331Z,3.83
2018-06-14T11:59:35.085Z,2.80
2018-06-14T12:02:38.687Z,2.33
2018-06-14T12:05:42.350Z,2.60
2018-06-14T12:08:46.004Z,1.90
2018-06-14T12:11:49.803Z,2.40
2018-06-14T12:14:53.293Z,2.83
2018-06-14T12:17:56.516Z,2.67
2018-06-14T12:21:00.204Z,2.00
2018-06-14T12:24:03.945Z,2.30
2018-06-14T12:27:07.579Z,2.60
2018-06-14T12:30:11.034Z,2.60
2018-06-14T12:33:14.558Z,3.08
2018-06-14T12:36:18.271Z,2.50
2018-06-14T12:39:21.927Z,3.10
2018-06-14T12:42:25.579Z,3.75
2018-06-14T12:45:29.338Z,2.72
2018-06-14T12:48:32.982Z,2.90
2018-06-14T12:51:36.870Z,2.70
2018-06-14T12:54:40.817Z,2.33
2018-06-14T12:57:44.409Z,2.30
2018-06-14T13:00:48.040Z,2.58
2018-06-14T13:03:51.724Z,3.00
2018-06-14T13:06:55.369Z,2.20
2018-06-14T13:09:58.986Z,2.40
2018-06-14T13:13:03.147Z,2.47
2018-06-14T13:16:06.644Z,2.40
2018-06-14T13:19:10.215Z,3.33
2018-06-14T13:22:13.861Z,2.55
2018-06-14T13:25:20.348Z,2.42
2018-06-14T13:28:24.022Z,2.10
2018-06-14T13:31:27.664Z,2.72
2018-06-14T13:34:31.474Z,3.37
2018-06-14T13:37:35.231Z,2.35
2018-06-14T13:40:38.846Z,3.95
2018-06-14T13:43:42.497Z,3.40
2018-06-14T13:46:46.249Z,2.80
2018-06-14T13:49:49.871Z,3.10
2018-06-14T13:52:53.475Z,2.20
2018-06-14T13:55:57.155Z,3.55
2018-06-14T13:59:00.762Z,3.95
2018-06-14T14:02:04.421Z,3.62
2018-06-14T14:05:08.073Z,2.58
2018-06-14T14:08:11.690Z,2.65
2018-06-14T14:11:15.409Z,3.73
2018-06-14T14:14:19.066Z,2.95
2018-06-14T14:17:22.702Z,2.70
2018-06-14T14:20:26.342Z,3.30
2018-06-14T14:23:29.951Z,2.80
2018-06-14T14:26:33.598Z,2.95
2018-06-14T14:29:37.539Z,2.40
2018-06-14T14:32:41.430Z,3.42
2018-06-14T14:35:45.054Z,3.50
2018-06-14T14:38:48.717Z,3.22
2018-06-14T14:41:52.338Z,3.00
2018-06-14T14:44:56.007Z,3.20
2018-06-14T14:47:59.615Z,2.20
2018-06-14T14:51:03.314Z,2.27
2018-06-14T14:54:07.016Z,2.55
2018-06-14T14:57:10.683Z,2.47
2018-06-14T15:00:14.845Z,2.77
2018-06-14T15:03:18.501Z,2.45
2018-06-14T15:06:22.154Z,2.65
2018-06-14T15:09:25.947Z,3.10
2018-06-14T15:12:29.565Z,3.47
2018-06-14T15:15:33.217Z,4.03
2018-06-14T15:18:36.952Z,3.42
2018-06-14T15:21:40.611Z,3.27
2018-06-14T15:24:44.257Z,3.42
2018-06-14T15:27:47.903Z,3.60
2018-06-14T15:30:51.510Z,2.70
2018-06-14T15:33:55.223Z,2.70
2018-06-14T15:36:58.904Z,2.40
2018-06-14T15:40:02.608Z,2.85
2018-06-14T15:43:06.252Z,3.12
2018-06-14T15:46:09.905Z,3.35
2018-06-14T15:49:13.527Z,2.67
2018-06-14T15:52:17.185Z,4.03
2018-06-14T15:55:26.280Z,2.60
2018-06-14T15:58:30.901Z,3.62
2018-06-14T16:01:34.278Z,3.30
2018-06-14T16:04:37.828Z,2.05
2018-06-14T16:07:41.544Z,2.40
2018-06-14T16:11:48.325Z,2.60
2018-06-14T16:14:52.051Z,3.35
2018-06-14T16:17:55.518Z,2.87
2018-06-14T16:20:58.860Z,2.40
2018-06-14T16:24:02.436Z,3.47
2018-06-14T16:27:06.037Z,2.90
2018-06-14T16:30:09.715Z,2.60
2018-06-14T16:33:13.437Z,2.80
2018-06-14T16:36:17.039Z,3.50
2018-06-14T16:39:20.494Z,2.90
2018-06-14T16:42:24.055Z,2.55
2018-06-14T16:45:27.743Z,4.65
2018-06-14T16:48:31.226Z,3.92
2018-06-14T16:51:34.589Z,3.80
2018-06-14T16:54:38.236Z,2.87
2018-06-14T16:57:41.886Z,2.87
2018-06-14T17:00:45.634Z,2.60
2018-06-14T17:03:49.091Z,3.65
2018-06-14T17:06:52.646Z,3.77
2018-06-14T17:09:56.480Z,5.10
2018-06-14T17:13:00.031Z,2.90
2018-06-14T17:16:03.682Z,2.60
2018-06-14T17:19:07.267Z,2.83
2018-06-14T17:22:10.934Z,3.25
2018-06-14T17:25:14.606Z,4.00
2018-06-14T17:28:24.663Z,5.35
2018-06-14T17:31:28.420Z,10.95
2018-06-14T17:34:32.004Z,5.25
2018-06-14T17:37:35.635Z,7.60
2018-06-14T17:40:39.735Z,4.47
2018-06-14T17:43:43.349Z,3.17
2018-06-14T17:46:47.056Z,4.05
2018-06-14T17:49:50.745Z,4.30
2018-06-14T17:52:54.347Z,3.12
2018-06-14T17:55:58.097Z,2.70
2018-06-14T17:59:01.653Z,9.35
2018-06-14T18:02:05.457Z,4.15
2018-06-14T18:05:09.305Z,3.50
2018-06-14T18:08:12.395Z,3.70
2018-06-14T18:11:15.919Z,6.83
2018-06-14T18:14:19.560Z,5.43
2018-06-14T18:17:23.231Z,5.05
2018-06-14T18:20:27.451Z,11.48
2018-06-14T18:23:31.148Z,5.10
2018-06-14T18:26:34.987Z,4.53
2018-06-14T18:29:38.630Z,5.40
2018-06-14T18:32:42.271Z,9.35
2018-06-14T18:35:46.107Z,5.60
2018-06-14T18:39:52.882Z,11.57
2018-06-14T18:42:56.691Z,6.33
2018-06-14T18:46:00.248Z,6.77
2018-06-14T18:49:04.151Z,5.03
2018-06-14T18:52:07.962Z,3.33
2018-06-14T18:55:11.668Z,4.53
2018-06-14T18:58:15.804Z,4.00
2018-06-14T19:01:20.331Z,3.63
2018-06-14T19:04:24.263Z,4.03
2018-06-14T19:07:29.361Z,4.53
2018-06-14T19:10:32.900Z,3.93
2018-06-14T19:13:36.328Z,4.70
2018-06-14T19:16:39.919Z,4.53
2018-06-14T19:19:43.758Z,4.10
2018-06-14T19:22:47.752Z,4.87
2018-06-14T19:25:51.438Z,4.70
2018-06-14T19:28:55.902Z,5.50
2018-06-14T19:32:00.509Z,7.03
2018-06-14T19:35:04.167Z,6.20
2018-06-14T19:38:07.784Z,7.47
2018-06-14T19:41:11.425Z,7.50
2018-06-14T19:44:15.046Z,8.63
2018-06-14T19:47:18.691Z,9.63
2018-06-14T19:50:22.315Z,8.40
2018-06-14T19:53:25.963Z,10.50
2018-06-14T19:56:29.401Z,8.97
2018-06-14T19:59:32.964Z,9.13
2018-06-14T20:02:36.578Z,8.80
2018-06-14T20:05:40.243Z,8.27
2018-06-14T20:08:43.949Z,7.70
2018-06-14T20:11:47.578Z,7.20
2018-06-14T20:14:51.011Z,9.30
2018-06-14T20:17:54.570Z,9.23
2018-06-14T20:20:58.097Z,8.20
2018-06-14T20:24:01.601Z,7.73
2018-06-14T20:27:05.360Z,9.67
2018-06-14T20:30:09.381Z,10.77
2018-06-14T20:33:13.019Z,10.17
2018-06-14T20:36:16.759Z,8.00
2018-06-14T20:39:20.361Z,8.77
2018-06-14T20:42:24.000Z,9.80
2018-06-14T20:45:27.427Z,9.37
2018-06-14T20:48:30.995Z,8.00
2018-06-14T20:51:34.424Z,9.73
2018-06-14T20:54:37.994Z,9.47
2018-06-14T20:57:41.873Z,8.63
2018-06-14T21:00:45.458Z,9.53
2018-06-14T21:03:49.089Z,9.03
2018-06-14T21:06:52.809Z,8.97
2018-06-14T21:09:56.472Z,10.27
2018-06-14T21:13:00.117Z,7.23
2018-06-14T21:16:03.561Z,10.03
2018-06-14T21:19:07.160Z,8.37
2018-06-14T21:22:10.843Z,11.97
2018-06-14T21:25:14.551Z,10.03
2018-06-14T21:28:18.180Z,8.27
2018-06-14T21:31:21.822Z,8.90
2018-06-14T21:34:25.456Z,9.50
2018-06-14T21:37:29.199Z,8.93
2018-06-14T21:40:32.834Z,8.93
2018-06-14T21:43:36.309Z,8.47
2018-06-14T21:46:40.431Z,9.57
2018-06-14T21:49:44.042Z,9.50
2018-06-14T21:52:47.650Z,10.27
2018-06-14T21:55:51.149Z,13.63
2018-06-14T21:58:54.675Z,11.93
2018-06-14T22:01:58.573Z,12.10
2018-06-14T22:05:02.010Z,14.73
2018-06-14T22:08:05.381Z,11.27
2018-06-14T22:11:09.002Z,10.43
2018-06-14T22:14:12.668Z,9.93
2018-06-14T22:17:16.100Z,9.70
2018-06-14T22:20:19.663Z,8.60
2018-06-14T22:23:23.264Z,7.70
2018-06-14T22:26:26.891Z,8.13
2018-06-14T22:29:30.470Z,6.97
2018-06-14T22:32:34.372Z,8.03
2018-06-14T22:35:37.816Z,7.93
2018-06-14T22:38:41.374Z,6.20
2018-06-14T22:41:44.875Z,10.00
2018-06-14T22:44:48.747Z,7.00
2018-06-14T22:47:52.341Z,6.37
2018-06-14T22:51:07.663Z,5.30
2018-06-14T22:54:11.242Z,5.20
2018-06-14T22:57:14.968Z,10.13
2018-06-14T23:01:29.772Z,6.20
2018-06-14T23:04:33.548Z,5.40
2018-06-14T23:07:37.196Z,4.80
2018-06-14T23:10:52.475Z,4.97
2018-06-14T23:13:56.094Z,4.50
2018-06-14T23:16:59.728Z,5.37
2018-06-14T23:20:03.165Z,5.50
2018-06-14T23:23:07.217Z,4.80
2018-06-14T23:26:10.853Z,5.23
2018-06-14T23:29:14.477Z,5.80
2018-06-14T23:32:18.095Z,6.23
2018-06-14T23:35:21.722Z,7.90
2018-06-14T23:38:25.329Z,8.93
2018-06-14T23:41:28.958Z,5.67
2018-06-14T23:44:32.583Z,4.60
2018-06-14T23:47:36.213Z,5.10
2018-06-14T23:50:39.841Z,5.23
2018-06-14T23:53:43.464Z,4.57
2018-06-14T23:56:46.877Z,5.67
2018-06-14T23:59:51.043Z,4.53
